createdAt,value
2023-01-21T00:01:34.990Z,102323.22
2023-01-21T00:04:01.407Z,102323.50
2023-01-21T00:06:27.788Z,102324.63
2023-01-21T00:08:54.214Z,102332.91
2023-01-21T00:11:20.642Z,102326.63
2023-01-21T00:13:47.971Z,102323.16
2023-01-21T00:16:14.876Z,102325.16
2023-01-21T00:18:41.886Z,102329.84
2023-01-21T00:21:08.365Z,102329.84
2023-01-21T00:23:34.793Z,102331.88
2023-01-21T00:26:02.372Z,102330.97
2023-01-21T00:28:29.666Z,102331.13
2023-01-21T00:30:59.870Z,102327.69
2023-01-21T00:33:26.822Z,102335.84
2023-01-21T00:36:00.439Z,102333.38
2023-01-21T00:38:26.830Z,102326.25
2023-01-21T00:40:53.244Z,102330.81
2023-01-21T00:43:19.675Z,102324.50
2023-01-21T00:45:46.149Z,102329.06
2023-01-21T00:48:12.571Z,102330.06
2023-01-21T00:50:38.962Z,102328.22
2023-01-21T00:53:05.377Z,102336.50
2023-01-21T00:55:31.814Z,102348.38
2023-01-21T00:57:58.349Z,102349.22
2023-01-21T01:00:24.796Z,102351.19
2023-01-21T01:02:51.228Z,102348.63
2023-01-21T01:05:19.404Z,102352.34
2023-01-21T01:07:47.351Z,102350.47
2023-01-21T01:10:13.872Z,102357.78
2023-01-21T01:12:40.407Z,102361.34
2023-01-21T01:15:07.116Z,102355.91
2023-01-21T01:17:34.134Z,102364.06
2023-01-21T01:20:00.512Z,102366.63
2023-01-21T01:22:26.851Z,102368.34
2023-01-21T01:24:53.357Z,102361.06
2023-01-21T01:27:19.794Z,102367.22
2023-01-21T01:29:46.250Z,102363.66
2023-01-21T01:32:12.597Z,102365.50
2023-01-21T01:34:39.068Z,102373.50
2023-01-21T01:37:05.558Z,102370.94
2023-01-21T01:39:31.981Z,102370.94
2023-01-21T01:41:58.510Z,102369.09
2023-01-21T01:44:54.330Z,102359.34
2023-01-21T01:47:21.436Z,102359.34
2023-01-21T01:49:48.159Z,102353.91
2023-01-21T01:52:15.553Z,102363.06
2023-01-21T01:54:47.388Z,102357.63
2023-01-21T01:57:15.864Z,102365.91
2023-01-21T01:59:43.009Z,102368.47
2023-01-21T02:02:11.892Z,102364.91
2023-01-21T02:04:42.501Z,102356.88
2023-01-21T02:07:09.002Z,102357.78
2023-01-21T02:09:35.408Z,102358.75
2023-01-21T02:12:03.463Z,102369.59
2023-01-21T02:14:30.575Z,102372.31
2023-01-21T02:17:00.111Z,102367.88
2023-01-21T02:19:26.488Z,102370.59
2023-01-21T02:21:52.862Z,102390.59
2023-01-21T02:24:50.383Z,102384.16
2023-01-21T02:27:32.635Z,102391.47
2023-01-21T02:30:10.961Z,102387.88
2023-01-21T02:32:52.629Z,102388.88
2023-01-21T02:35:24.681Z,102395.16
2023-01-21T02:37:51.133Z,102396.03
2023-01-21T02:40:23.492Z,102398.75
2023-01-21T02:43:07.553Z,102404.16
2023-01-21T02:45:38.766Z,102402.31
2023-01-21T02:48:13.713Z,102406.88
2023-01-21T02:50:49.234Z,102402.31
2023-01-21T02:53:33.350Z,102401.31
2023-01-21T02:56:08.075Z,102397.75
2023-01-21T02:58:36.156Z,102394.16
2023-01-21T03:01:02.735Z,102406.75
2023-01-21T03:03:29.247Z,102407.59
2023-01-21T03:06:11.032Z,102414.03
2023-01-21T03:08:49.710Z,102417.59
2023-01-21T03:11:17.241Z,102420.31
2023-01-21T03:14:08.384Z,102419.31
2023-01-21T03:16:55.704Z,102410.47
2023-01-21T03:19:23.807Z,102410.47
2023-01-21T03:21:50.573Z,102414.03
2023-01-21T03:24:17.360Z,102412.16
2023-01-21T03:26:49.582Z,102411.16
2023-01-21T03:29:19.997Z,102415.63
2023-01-21T03:31:49.000Z,102421.91
2023-01-21T03:34:16.724Z,102421.78
2023-01-21T03:36:43.146Z,102419.22
2023-01-21T03:39:21.517Z,102418.34
2023-01-21T03:41:48.053Z,102414.88
2023-01-21T03:44:14.540Z,102403.16
2023-01-21T03:46:44.139Z,102414.88
2023-01-21T03:49:17.143Z,102414.88
2023-01-21T03:51:48.732Z,102422.16
2023-01-21T03:54:15.243Z,102419.47
2023-01-21T03:56:41.631Z,102421.19
2023-01-21T03:59:08.001Z,102421.19
2023-01-21T04:01:34.384Z,102421.66
2023-01-21T04:04:00.928Z,102424.25
2023-01-21T04:06:27.401Z,102419.66
2023-01-21T04:08:53.774Z,102426.09
2023-01-21T04:11:20.348Z,102426.09
2023-01-21T04:13:46.789Z,102418.94
2023-01-21T04:16:13.465Z,102420.78
2023-01-21T04:18:39.864Z,102420.78
2023-01-21T04:21:06.267Z,102424.38
2023-01-21T04:23:32.755Z,102428.91
2023-01-21T04:25:59.170Z,102426.34
2023-01-21T04:28:25.570Z,102427.34
2023-01-21T04:30:52.127Z,102434.63
2023-01-21T04:33:18.568Z,102422.03
2023-01-21T04:35:44.961Z,102430.06
2023-01-21T04:38:11.928Z,102425.75
2023-01-21T04:40:38.394Z,102431.19
2023-01-21T04:43:04.835Z,102424.75
2023-01-21T04:45:31.272Z,102432.03
2023-01-21T04:47:57.658Z,102421.19
2023-01-21T04:50:24.082Z,102425.63
2023-01-21T04:52:50.484Z,102424.75
2023-01-21T04:55:17.040Z,102425.63
2023-01-21T04:57:43.555Z,102432.03
2023-01-21T05:00:10.509Z,102436.59
2023-01-21T05:02:36.956Z,102445.75
2023-01-21T05:05:03.446Z,102452.03
2023-01-21T05:07:29.885Z,102447.59
2023-01-21T05:09:56.320Z,102447.72
2023-01-21T05:12:22.814Z,102449.56
2023-01-21T05:14:52.442Z,102453.16
2023-01-21T05:17:18.848Z,102450.44
2023-01-21T05:19:45.321Z,102460.44
2023-01-21T05:22:11.763Z,102461.28
2023-01-21T05:24:38.147Z,102459.47
2023-01-21T05:27:04.516Z,102455.00
2023-01-21T05:29:31.160Z,102450.44
2023-01-21T05:31:57.572Z,102455.84
2023-01-21T05:34:24.054Z,102459.47
2023-01-21T05:36:50.414Z,102471.28
2023-01-21T05:39:16.846Z,102474.84
2023-01-21T05:41:43.257Z,102485.84
2023-01-21T05:44:09.803Z,102503.16
2023-01-21T05:46:36.286Z,102507.97
2023-01-21T05:49:02.713Z,102506.25
2023-01-21T05:51:29.099Z,102506.25
2023-01-21T05:53:55.619Z,102508.97
2023-01-21T05:56:22.034Z,102505.78
2023-01-21T05:58:48.431Z,102514.03
2023-01-21T06:01:14.871Z,102513.41
2023-01-21T06:03:41.304Z,102535.50
2023-01-21T06:06:07.918Z,102523.47
2023-01-21T06:08:34.473Z,102523.81
2023-01-21T06:11:00.928Z,102519.38
2023-01-21T06:13:27.290Z,102525.66
2023-01-21T06:15:54.663Z,102529.38
2023-01-21T06:18:21.094Z,102530.63
2023-01-21T06:20:47.537Z,102550.38
2023-01-21T06:23:13.921Z,102546.03
2023-01-21T06:25:40.878Z,102535.31
2023-01-21T06:28:07.295Z,102546.28
2023-01-21T06:30:33.721Z,102551.59
2023-01-21T06:33:00.098Z,102554.41
2023-01-21T06:35:26.591Z,102562.56
2023-01-21T06:37:53.111Z,102552.84
2023-01-21T06:40:19.715Z,102549.38
2023-01-21T06:42:46.993Z,102551.38
2023-01-21T06:45:13.534Z,102558.63
2023-01-21T06:47:41.204Z,102552.31
2023-01-21T06:50:08.117Z,102564.16
2023-01-21T06:52:34.513Z,102561.34
2023-01-21T06:55:00.932Z,102561.34
2023-01-21T06:57:27.316Z,102562.31
2023-01-21T06:59:53.765Z,102567.63
2023-01-21T07:02:20.180Z,102558.63
2023-01-21T07:04:48.362Z,102564.78
2023-01-21T07:07:14.859Z,102570.06
2023-01-21T07:09:41.285Z,102565.50
2023-01-21T07:12:07.751Z,102569.97
2023-01-21T07:14:34.319Z,102573.41
2023-01-21T07:17:00.857Z,102572.31
2023-01-21T07:19:27.571Z,102572.06
2023-01-21T07:21:54.582Z,102567.34
2023-01-21T07:24:21.187Z,102563.78
2023-01-21T07:26:48.228Z,102570.94
2023-01-21T07:29:14.665Z,102570.94
2023-01-21T07:31:41.180Z,102575.38
2023-01-21T07:34:07.706Z,102583.50
2023-01-21T07:36:34.125Z,102581.78
2023-01-21T07:39:00.665Z,102577.34
2023-01-21T07:41:27.121Z,102580.94
2023-01-21T07:43:53.612Z,102578.06
2023-01-21T07:46:20.892Z,102571.69
2023-01-21T07:48:48.287Z,102569.84
2023-01-21T07:51:14.816Z,102572.53
2023-01-21T07:53:41.311Z,102565.25
2023-01-21T07:56:09.870Z,102574.41
2023-01-21T07:58:37.053Z,102576.13
2023-01-21T08:01:10.588Z,102560.84
2023-01-21T08:03:37.697Z,102561.44
2023-01-21T08:06:04.682Z,102560.31
2023-01-21T08:08:31.546Z,102560.06
2023-01-21T08:10:58.000Z,102550.94
2023-01-21T08:13:24.708Z,102549.09
2023-01-21T08:15:51.808Z,102551.69
2023-01-21T08:18:18.660Z,102549.84
2023-01-21T08:20:45.237Z,102554.41
2023-01-21T08:23:11.713Z,102554.25
2023-01-21T08:25:38.416Z,102564.25
2023-01-21T08:28:05.096Z,102556.97
2023-01-21T08:30:31.652Z,102563.41
2023-01-21T08:32:58.119Z,102557.84
2023-01-21T08:35:24.561Z,102545.25
2023-01-21T08:38:00.009Z,102549.69
2023-01-21T08:40:27.405Z,102545.97
2023-01-21T08:43:00.864Z,102553.16
2023-01-21T08:45:27.867Z,102556.72
2023-01-21T08:47:54.553Z,102558.44
2023-01-21T08:50:21.610Z,102557.59
2023-01-21T08:52:58.005Z,102546.59
2023-01-21T08:55:26.703Z,102559.31
2023-01-21T08:57:54.360Z,102554.75
2023-01-21T09:00:21.139Z,102552.88
2023-01-21T09:02:48.249Z,102544.75
2023-01-21T09:05:16.625Z,102550.06
2023-01-21T09:07:43.704Z,102551.91
2023-01-21T09:10:10.450Z,102559.91
2023-01-21T09:12:38.286Z,102559.06
2023-01-21T09:15:05.422Z,102554.50
2023-01-21T09:17:31.928Z,102557.06
2023-01-21T09:19:58.390Z,102558.81
2023-01-21T09:22:24.951Z,102555.97
2023-01-21T09:24:51.394Z,102558.53
2023-01-21T09:27:17.847Z,102559.28
2023-01-21T09:29:44.405Z,102559.16
2023-01-21T09:32:10.980Z,102567.16
2023-01-21T09:34:37.523Z,102569.88
2023-01-21T09:37:05.076Z,102570.63
2023-01-21T09:39:31.532Z,102571.34
2023-01-21T09:41:58.265Z,102575.66
2023-01-21T09:44:29.127Z,102571.84
2023-01-21T09:47:09.393Z,102578.00
2023-01-21T09:49:41.788Z,102577.00
2023-01-21T09:52:17.418Z,102575.88
2023-01-21T09:54:43.965Z,102569.34
2023-01-21T09:57:10.345Z,102562.91
2023-01-21T09:59:46.126Z,102561.66
2023-01-21T10:02:20.634Z,102555.25
2023-01-21T10:04:52.566Z,102554.84
2023-01-21T10:07:22.262Z,102547.31
2023-01-21T10:09:48.605Z,102553.13
2023-01-21T10:12:14.961Z,102547.75
2023-01-21T10:14:56.433Z,102550.69
2023-01-21T10:17:41.268Z,102549.16
2023-01-21T10:20:07.731Z,102546.91
2023-01-21T10:22:34.672Z,102544.66
2023-01-21T10:25:16.425Z,102540.81
2023-01-21T10:27:44.646Z,102533.38
2023-01-21T10:30:43.358Z,102533.25
2023-01-21T10:33:17.221Z,102535.56
2023-01-21T10:35:51.718Z,102531.84
2023-01-21T10:38:21.088Z,102528.88
2023-01-21T10:40:55.807Z,102536.88
2023-01-21T10:43:30.641Z,102528.59
2023-01-21T10:46:17.127Z,102532.03
2023-01-21T10:48:53.901Z,102532.75
2023-01-21T10:51:40.642Z,102525.34
2023-01-21T10:54:14.246Z,102520.59
2023-01-21T10:57:02.656Z,102519.63
2023-01-21T10:59:33.343Z,102514.91
2023-01-21T11:02:23.264Z,102516.63
2023-01-21T11:04:50.634Z,102519.22
2023-01-21T11:07:19.446Z,102505.63
2023-01-21T11:09:47.016Z,102507.34
2023-01-21T11:12:16.117Z,102499.03
2023-01-21T11:14:43.789Z,102483.72
2023-01-21T11:17:10.373Z,102486.31
2023-01-21T11:19:36.996Z,102484.44
2023-01-21T11:22:06.521Z,102483.47
2023-01-21T11:24:41.983Z,102496.91
2023-01-21T11:27:17.442Z,102481.59
2023-01-21T11:29:43.842Z,102476.16
2023-01-21T11:32:16.196Z,102474.16
2023-01-21T11:34:46.406Z,102480.59
2023-01-21T11:37:24.201Z,102473.31
2023-01-21T11:39:55.293Z,102471.59
2023-01-21T11:42:22.079Z,102467.00
2023-01-21T11:45:08.789Z,102459.69
2023-01-21T11:47:36.318Z,102456.97
2023-01-21T11:50:27.497Z,102450.69
2023-01-21T11:53:14.211Z,102453.25
2023-01-21T11:55:40.627Z,102446.00
2023-01-21T11:58:15.662Z,102443.28
2023-01-21T12:00:44.667Z,102436.94
2023-01-21T12:03:14.601Z,102441.41
2023-01-21T12:05:43.186Z,102444.13
2023-01-21T12:08:36.007Z,102434.97
2023-01-21T12:11:04.723Z,102433.09
2023-01-21T12:13:34.170Z,102427.66
2023-01-21T12:16:06.876Z,102422.22
2023-01-21T12:18:36.353Z,102419.50
2023-01-21T12:21:21.571Z,102420.34
2023-01-21T12:23:49.470Z,102415.78
2023-01-21T12:26:21.910Z,102418.50
2023-01-21T12:29:01.970Z,102422.06
2023-01-21T12:31:32.836Z,102404.91
2023-01-21T12:34:04.290Z,102404.78
2023-01-21T12:36:34.857Z,102403.91
2023-01-21T12:39:17.796Z,102398.47
2023-01-21T12:41:46.790Z,102398.47
2023-01-21T12:44:16.333Z,102395.75
2023-01-21T12:46:46.294Z,102400.19
2023-01-21T12:49:21.643Z,102396.63
2023-01-21T12:51:51.393Z,102387.59
2023-01-21T12:54:34.615Z,102392.03
2023-01-21T12:57:27.420Z,102390.31
2023-01-21T12:59:57.135Z,102397.47
2023-01-21T13:02:32.311Z,102400.19
2023-01-21T13:05:07.655Z,102399.19
2023-01-21T13:07:47.587Z,102400.03
2023-01-21T13:10:24.073Z,102403.78
2023-01-21T13:12:55.973Z,102407.34
2023-01-21T13:15:25.949Z,102391.03
2023-01-21T13:17:55.544Z,102388.31
2023-01-21T13:20:22.582Z,102387.31
2023-01-21T13:23:05.010Z,102387.31
2023-01-21T13:25:31.422Z,102382.00
2023-01-21T13:28:06.310Z,102376.56
2023-01-21T13:30:38.801Z,102357.38
2023-01-21T13:33:25.586Z,102348.38
2023-01-21T13:36:04.017Z,102344.78
2023-01-21T13:39:09.193Z,102345.66
2023-01-21T13:41:35.616Z,102370.13
2023-01-21T13:44:08.086Z,102369.28
2023-01-21T13:46:55.057Z,102369.28
2023-01-21T13:49:33.786Z,102374.88
2023-01-21T13:52:13.348Z,102371.13
2023-01-21T13:54:55.165Z,102350.22
2023-01-21T13:57:22.055Z,102324.91
2023-01-21T13:59:55.024Z,102341.22
2023-01-21T14:02:41.902Z,102356.53
2023-01-21T14:05:08.362Z,102354.66
2023-01-21T14:07:41.029Z,102365.53
2023-01-21T14:10:10.485Z,102356.53
2023-01-21T14:12:57.124Z,102341.06
2023-01-21T14:15:36.725Z,102341.06
2023-01-21T14:18:09.126Z,102350.09
2023-01-21T14:20:35.533Z,102349.22
2023-01-21T14:23:01.929Z,102354.53
2023-01-21T14:25:31.554Z,102351.81
2023-01-21T14:28:06.293Z,102364.56
2023-01-21T14:30:48.053Z,102348.09
2023-01-21T14:33:17.397Z,102358.13
2023-01-21T14:35:47.674Z,102355.41
2023-01-21T14:38:20.519Z,102359.84
2023-01-21T14:40:51.373Z,102348.94
2023-01-21T14:43:30.121Z,102368.69
2023-01-21T14:45:57.215Z,102369.00
2023-01-21T14:48:28.199Z,102361.69
2023-01-21T14:51:08.589Z,102371.72
2023-01-21T14:53:48.604Z,102359.84
2023-01-21T14:56:25.446Z,102361.69
2023-01-21T14:58:59.771Z,102329.06
2023-01-21T15:01:29.276Z,102338.06
2023-01-21T15:03:56.654Z,102336.38
2023-01-21T15:06:23.622Z,102324.47
2023-01-21T15:08:56.322Z,102335.34
2023-01-21T15:11:28.312Z,102322.63
2023-01-21T15:14:02.447Z,102329.06
2023-01-21T15:16:32.306Z,102333.50
2023-01-21T15:19:19.068Z,102324.47
2023-01-21T15:22:01.568Z,102332.63
2023-01-21T15:24:39.355Z,102325.50
2023-01-21T15:27:14.636Z,102329.06
2023-01-21T15:29:43.908Z,102322.75
2023-01-21T15:32:29.267Z,102317.31
2023-01-21T15:34:58.946Z,102309.16
2023-01-21T15:37:26.219Z,102301.00
2023-01-21T15:39:57.106Z,102304.75
2023-01-21T15:42:43.580Z,102314.59
2023-01-21T15:45:10.009Z,102311.88
2023-01-21T15:47:48.685Z,102329.91
2023-01-21T15:50:21.309Z,102320.03
2023-01-21T15:53:08.417Z,102322.75
2023-01-21T15:56:13.650Z,102325.50
2023-01-21T15:58:49.002Z,102315.47
2023-01-21T16:01:41.679Z,102318.19
2023-01-21T16:04:14.001Z,102316.47
2023-01-21T16:06:55.615Z,102324.47
2023-01-21T16:09:28.755Z,102320.03
2023-01-21T16:12:11.089Z,102317.31
2023-01-21T16:14:40.545Z,102314.59
2023-01-21T16:17:25.786Z,102303.72
2023-01-21T16:19:53.390Z,102297.28
2023-01-21T16:22:22.338Z,102303.56
2023-01-21T16:24:52.987Z,102293.72
2023-01-21T16:27:20.712Z,102294.56
2023-01-21T16:29:47.181Z,102294.56
2023-01-21T16:32:17.845Z,102283.69
2023-01-21T16:34:44.307Z,102284.53
2023-01-21T16:37:12.394Z,102277.38
2023-01-21T16:39:39.714Z,102294.72
2023-01-21T16:42:07.181Z,102300.84
2023-01-21T16:44:35.060Z,102289.13
2023-01-21T16:47:02.423Z,102306.13
2023-01-21T16:49:28.919Z,102295.56
2023-01-21T16:51:57.323Z,102302.56
2023-01-21T16:54:31.634Z,102309.00
2023-01-21T16:56:58.189Z,102312.75
2023-01-21T16:59:28.894Z,102306.28
2023-01-21T17:01:56.384Z,102293.72
2023-01-21T17:04:23.025Z,102303.56
2023-01-21T17:06:49.928Z,102308.16
2023-01-21T17:09:31.804Z,102313.59
2023-01-21T17:12:01.584Z,102305.44
2023-01-21T17:14:29.775Z,102313.59
2023-01-21T17:16:57.654Z,102323.63
2023-01-21T17:19:27.817Z,102321.75
2023-01-21T17:21:57.052Z,102329.06
2023-01-21T17:24:25.807Z,102325.34
2023-01-21T17:26:54.321Z,102315.47
2023-01-21T17:29:25.577Z,102322.75
2023-01-21T17:31:59.185Z,102320.91
2023-01-21T17:34:30.083Z,102320.91
2023-01-21T17:36:57.137Z,102331.78
2023-01-21T17:39:42.342Z,102308.44
2023-01-21T17:42:16.194Z,102329.91
2023-01-21T17:44:45.666Z,102330.78
2023-01-21T17:47:21.446Z,102325.34
2023-01-21T17:49:47.886Z,102335.34
2023-01-21T17:52:20.837Z,102334.50
2023-01-21T17:54:47.836Z,102337.22
2023-01-21T17:57:43.755Z,102333.50
2023-01-21T18:00:27.162Z,102327.19
2023-01-21T18:02:53.661Z,102348.81
2023-01-21T18:05:20.036Z,102334.34
2023-01-21T18:07:46.502Z,102355.09
2023-01-21T18:10:21.172Z,102352.38
2023-01-21T18:12:47.565Z,102356.88
2023-01-21T18:15:19.706Z,102356.00
2023-01-21T18:17:57.720Z,102347.94
2023-01-21T18:20:25.516Z,102356.88
2023-01-21T18:22:52.861Z,102365.03
2023-01-21T18:25:20.166Z,102366.75
2023-01-21T18:27:51.796Z,102365.88
2023-01-21T18:30:19.630Z,102374.91
2023-01-21T18:32:46.699Z,102376.84
2023-01-21T18:35:17.708Z,102384.94
2023-01-21T18:37:44.743Z,102375.75
2023-01-21T18:40:17.611Z,102383.06
2023-01-21T18:42:48.142Z,102371.19
2023-01-21T18:45:21.985Z,102383.75
2023-01-21T18:47:49.762Z,102380.19
2023-01-21T18:50:20.543Z,102383.91
2023-01-21T18:52:47.241Z,102381.19
2023-01-21T18:55:15.367Z,102388.34
2023-01-21T18:57:43.221Z,102393.78
2023-01-21T19:00:30.369Z,102392.94
2023-01-21T19:02:57.641Z,102392.06
2023-01-21T19:05:25.651Z,102391.06
2023-01-21T19:07:52.181Z,102396.50
2023-01-21T19:10:20.100Z,102391.06
2023-01-21T19:12:47.280Z,102397.53
2023-01-21T19:15:14.928Z,102399.22
2023-01-21T19:17:41.303Z,102392.94
2023-01-21T19:20:28.009Z,102399.22
2023-01-21T19:22:55.363Z,102395.66
2023-01-21T19:25:23.379Z,102405.69
2023-01-21T19:27:50.967Z,102399.22
2023-01-21T19:30:17.709Z,102402.09
2023-01-21T19:32:44.337Z,102403.09
2023-01-21T19:35:13.550Z,102395.88
2023-01-21T19:37:40.833Z,102415.69
2023-01-21T19:40:15.905Z,102410.41
2023-01-21T19:42:42.445Z,102416.72
2023-01-21T19:45:08.968Z,102409.50
2023-01-21T19:47:38.110Z,102414.84
2023-01-21T19:50:05.829Z,102408.41
2023-01-21T19:52:33.511Z,102416.56
2023-01-21T19:54:59.902Z,102420.13
2023-01-21T19:57:26.286Z,102422.84
2023-01-21T19:59:55.533Z,102421.00
2023-01-21T20:02:22.100Z,102426.44
2023-01-21T20:04:49.326Z,102420.00
2023-01-21T20:07:19.839Z,102432.72
2023-01-21T20:09:46.214Z,102429.88
2023-01-21T20:12:12.885Z,102433.47
2023-01-21T20:14:39.330Z,102424.44
2023-01-21T20:17:05.844Z,102433.47
2023-01-21T20:19:32.282Z,102431.75
2023-01-21T20:22:02.512Z,102437.91
2023-01-21T20:24:30.542Z,102445.94
2023-01-21T20:26:57.899Z,102446.91
2023-01-21T20:29:26.636Z,102445.03
2023-01-21T20:31:54.293Z,102442.31
2023-01-21T20:34:20.781Z,102447.78
2023-01-21T20:36:49.554Z,102454.94
2023-01-21T20:39:16.089Z,102456.81
2023-01-21T20:41:43.431Z,102461.38
2023-01-21T20:44:10.533Z,102463.13
2023-01-21T20:46:37.092Z,102462.25
2023-01-21T20:49:03.588Z,102465.84
2023-01-21T20:51:30.172Z,102466.69
2023-01-21T20:53:56.578Z,102468.56
2023-01-21T20:56:26.078Z,102474.84
2023-01-21T20:58:52.763Z,102469.69
2023-01-21T21:01:20.625Z,102476.72
2023-01-21T21:03:47.522Z,102484.88
2023-01-21T21:06:18.507Z,102483.00
2023-01-21T21:08:45.314Z,102487.59
2023-01-21T21:11:13.554Z,102488.47
2023-01-21T21:13:39.948Z,102491.03
2023-01-21T21:16:16.801Z,102484.88
2023-01-21T21:18:43.262Z,102492.03
2023-01-21T21:21:11.292Z,102485.72
2023-01-21T21:23:37.638Z,102490.31
2023-01-21T21:26:04.201Z,102490.31
2023-01-21T21:28:30.627Z,102493.91
2023-01-21T21:30:57.108Z,102496.63
2023-01-21T21:33:23.694Z,102495.03
2023-01-21T21:35:50.116Z,102493.03
2023-01-21T21:38:23.042Z,102495.75
2023-01-21T21:40:53.021Z,102502.06
2023-01-21T21:43:32.495Z,102510.22
2023-01-21T21:46:23.165Z,102508.50
2023-01-21T21:48:50.596Z,102511.34
2023-01-21T21:51:22.465Z,102504.78
2023-01-21T21:53:49.770Z,102505.78
2023-01-21T21:56:17.964Z,102506.63
2023-01-21T21:58:44.562Z,102512.94
2023-01-21T22:01:15.950Z,102515.66
2023-01-21T22:03:42.518Z,102507.75
2023-01-21T22:06:09.640Z,102520.25
2023-01-21T22:08:37.110Z,102516.50
2023-01-21T22:11:05.085Z,102515.78
2023-01-21T22:13:33.154Z,102518.50
2023-01-21T22:16:00.857Z,102518.50
2023-01-21T22:18:28.872Z,102520.34
2023-01-21T22:21:05.666Z,102523.94
2023-01-21T22:23:33.070Z,102530.25
2023-01-21T22:26:01.147Z,102526.66
2023-01-21T22:28:27.592Z,102534.81
2023-01-21T22:30:54.164Z,102525.78
2023-01-21T22:33:23.838Z,102530.25
2023-01-21T22:35:50.277Z,102523.81
2023-01-21T22:38:16.805Z,102529.09
2023-01-21T22:40:44.361Z,102534.44
2023-01-21T22:43:11.521Z,102542.44
2023-01-21T22:45:40.168Z,102540.59
2023-01-21T22:48:06.726Z,102545.00
2023-01-21T22:50:33.160Z,102545.00
2023-01-21T22:52:59.582Z,102540.31
2023-01-21T22:55:25.957Z,102538.44
2023-01-21T22:57:52.487Z,102536.59
2023-01-21T23:00:33.190Z,102547.31
2023-01-21T23:02:59.639Z,102543.63
2023-01-21T23:05:27.310Z,102542.63
2023-01-21T23:07:54.340Z,102543.31
2023-01-21T23:10:20.834Z,102545.19
2023-01-21T23:12:48.099Z,102548.75
2023-01-21T23:15:14.634Z,102545.06
2023-01-21T23:17:41.071Z,102548.66
2023-01-21T23:20:08.765Z,102555.47
2023-01-21T23:22:35.189Z,102556.19
2023-01-21T23:25:01.634Z,102551.03
2023-01-21T23:27:28.207Z,102552.03
2023-01-21T23:29:54.593Z,102562.91
2023-01-21T23:32:20.997Z,102561.31
2023-01-21T23:34:47.455Z,102566.00
2023-01-21T23:37:13.870Z,102564.69
2023-01-21T23:39:40.344Z,102551.34
2023-01-21T23:42:06.802Z,102551.63
2023-01-21T23:44:33.219Z,102562.63
2023-01-21T23:47:02.786Z,102555.63
2023-01-21T23:49:29.397Z,102559.47
2023-01-21T23:51:55.813Z,102555.03
2023-01-21T23:54:22.191Z,102556.03
2023-01-21T23:56:48.600Z,102549.84
2023-01-21T23:59:15.177Z,102553.56
